Time;durP1;ratioP1;P1;durP2;ratioP2;P2;SDS_P1;SDS_P2;PMS_P1;PMS_P2;Temp;Humidity;BMP_temperature;BMP_pressure;BME280_temperature;BME280_humidity;BME280_pressure;Samples;Min_cycle;Max_cycle;Signal;HPM_P1;HPM_P2
2023/12/17 00:00:44;;;;;;;;;;;;;;;4.80;65.95;101361.63;4505063;31;33964;-85
2023/12/17 00:03:12;;;;;;;;;;;;;;;4.92;65.55;101369.31;4508403;31;34863;-88
2023/12/17 00:05:47;;;;;;;;;;;;;;;4.95;65.29;101367.88;4498810;31;34269;-86
2023/12/17 00:08:19;;;;;;;;;;;;;;;4.87;65.43;101374.16;4511649;31;34712;-88
2023/12/17 00:10:48;;;;;;;;;;;;;;;4.81;65.70;101379.75;4500608;31;34867;-85
2023/12/17 00:13:16;;;;;;;;;;;;;;;4.87;65.22;101375.03;4503734;31;33841;-88
2023/12/17 00:15:43;;;;;;;;;;;;;;;4.82;65.36;101385.78;4492902;31;32898;-83
2023/12/17 00:18:11;;;;;;;;;;;;;;;4.92;65.13;101380.50;4498184;31;35042;-84
2023/12/17 00:20:39;;;;;;;;;;;;;;;4.85;65.11;101384.34;4488635;31;34204;-86
2023/12/17 00:23:07;;;;;;;;;;;;;;;4.80;65.50;101379.63;4499291;31;34257;-85
2023/12/17 00:25:34;;;;;;;;;;;;;;;4.84;65.08;101372.25;4500894;31;34198;-89
2023/12/17 00:28:02;;;;;;;;;;;;;;;4.81;65.01;101369.47;4501519;31;33963;-84
2023/12/17 00:30:29;;;;;;;;;;;;;;;4.79;65.02;101376.19;4501197;31;34032;-84
2023/12/17 00:32:56;;;;;;;;;;;;;;;4.84;64.86;101367.09;4515830;31;33962;-85
2023/12/17 00:35:24;;;;;;;;;;;;;;;4.71;65.33;101366.16;4516211;31;33382;-91
2023/12/17 00:37:51;;;;;;;;;;;;;;;4.86;64.69;101351.81;4507878;31;34109;-89
2023/12/17 00:40:18;;;;;;;;;;;;;;;4.77;64.79;101357.19;4515038;31;34377;-92
2023/12/17 00:42:46;;;;;;;;;;;;;;;4.81;64.80;101359.19;4503199;31;34331;-84
2023/12/17 00:45:13;;;;;;;;;;;;;;;4.82;64.65;101362.66;4499918;31;33526;-86
2023/12/17 00:47:40;;;;;;;;;;;;;;;4.81;64.50;101366.91;4500136;31;34199;-92
2023/12/17 00:50:08;;;;;;;;;;;;;;;4.80;64.18;101377.94;4504160;31;35059;-85
2023/12/17 00:52:36;;;;;;;;;;;;;;;4.69;64.46;101371.16;4498384;31;33924;-86
2023/12/17 00:55:03;;;;;;;;;;;;;;;4.75;64.27;101363.91;4494217;31;33591;-86
2023/12/17 00:57:32;;;;;;;;;;;;;;;4.77;64.11;101359.78;4484041;31;34119;-87
2023/12/17 00:59:59;;;;;;;;;;;;;;;4.71;64.21;101349.03;4487984;31;33521;-90
2023/12/17 01:02:27;;;;;;;;;;;;;;;4.70;64.22;101362.69;4490703;31;34163;-87
2023/12/17 01:04:54;;;;;;;;;;;;;;;4.56;64.47;101373.66;4498763;31;34330;-90
2023/12/17 01:07:22;;;;;;;;;;;;;;;4.66;64.49;101373.53;4498601;31;33797;-85
2023/12/17 01:09:49;;;;;;;;;;;;;;;4.75;63.94;101384.44;4498321;31;35163;-92
2023/12/17 01:12:17;;;;;;;;;;;;;;;4.63;64.30;101378.44;4495814;31;34487;-86
2023/12/17 01:14:44;;;;;;;;;;;;;;;4.66;64.21;101375.19;4488627;31;33120;-86
2023/12/17 01:17:12;;;;;;;;;;;;;;;4.62;64.01;101371.50;4484429;31;34739;-87
2023/12/17 01:19:39;;;;;;;;;;;;;;;4.68;63.72;101371.06;4484892;31;34772;-88
2023/12/17 01:22:25;;;;;;;;;;;;;;;4.61;63.73;101375.75;4497553;31;35080;-84
2023/12/17 01:24:54;;;;;;;;;;;;;;;4.52;63.89;101381.91;4499490;31;34217;-87
2023/12/17 01:27:22;;;;;;;;;;;;;;;4.50;63.82;101381.78;4499713;31;34412;-88
2023/12/17 01:29:49;;;;;;;;;;;;;;;4.52;63.81;101369.06;4484371;31;35109;-93
2023/12/17 01:32:16;;;;;;;;;;;;;;;4.53;63.57;101358.00;4486332;31;34886;-93
2023/12/17 01:34:44;;;;;;;;;;;;;;;4.46;63.74;101353.19;4498059;31;33293;-89
2023/12/17 01:37:11;;;;;;;;;;;;;;;4.50;63.56;101350.06;4485431;31;34104;-90
2023/12/17 01:39:38;;;;;;;;;;;;;;;4.51;63.63;101346.72;4487059;31;34360;-86
2023/12/17 01:42:06;;;;;;;;;;;;;;;4.41;63.83;101355.44;4483616;32;35351;-86
2023/12/17 01:44:33;;;;;;;;;;;;;;;4.25;64.47;101361.16;4486835;31;33708;-85
2023/12/17 01:47:01;;;;;;;;;;;;;;;4.35;64.29;101365.25;4488426;31;34047;-86
2023/12/17 01:49:28;;;;;;;;;;;;;;;4.46;63.87;101371.19;4490395;31;34889;-90
2023/12/17 01:51:55;;;;;;;;;;;;;;;4.38;64.17;101376.66;4508864;31;35052;-85
2023/12/17 01:54:22;;;;;;;;;;;;;;;4.54;63.73;101380.31;4506540;31;32863;-86
2023/12/17 01:56:50;;;;;;;;;;;;;;;4.46;63.65;101371.19;4500613;31;33928;-85
2023/12/17 01:59:17;;;;;;;;;;;;;;;4.39;63.91;101370.75;4493114;31;33959;-86
2023/12/17 02:01:44;;;;;;;;;;;;;;;4.27;64.13;101359.56;4485504;31;34435;-86
2023/12/17 02:04:12;;;;;;;;;;;;;;;4.46;63.80;101366.03;4486457;31;33402;-88
2023/12/17 02:06:39;;;;;;;;;;;;;;;4.21;64.32;101366.84;4508483;31;34528;-87
2023/12/17 02:09:07;;;;;;;;;;;;;;;4.35;64.08;101370.41;4500643;31;34478;-93
2023/12/17 02:11:34;;;;;;;;;;;;;;;4.39;63.73;101373.31;4499653;31;34071;-89
2023/12/17 02:14:02;;;;;;;;;;;;;;;4.14;64.51;101357.78;4506516;31;33804;-92
2023/12/17 02:16:29;;;;;;;;;;;;;;;4.28;64.13;101363.03;4514624;31;34024;-86
2023/12/17 02:18:57;;;;;;;;;;;;;;;4.12;64.24;101376.41;4515274;31;33805;-85
2023/12/17 02:21:24;;;;;;;;;;;;;;;4.02;64.68;101363.72;4498902;31;34970;-86
2023/12/17 02:23:52;;;;;;;;;;;;;;;4.24;64.04;101361.00;4515215;31;33025;-86
2023/12/17 02:26:19;;;;;;;;;;;;;;;4.18;64.10;101363.16;4507714;31;33723;-86
2023/12/17 02:28:47;;;;;;;;;;;;;;;4.10;64.30;101357.47;4506225;31;33976;-86
2023/12/17 02:31:14;;;;;;;;;;;;;;;4.18;64.17;101358.91;4514578;31;35086;-86
2023/12/17 02:33:42;;;;;;;;;;;;;;;4.08;64.41;101353.88;4501149;31;34257;-86
2023/12/17 02:36:09;;;;;;;;;;;;;;;3.87;65.01;101354.09;4506081;31;33785;-85
2023/12/17 02:38:36;;;;;;;;;;;;;;;4.08;64.20;101361.56;4500125;31;34308;-86
2023/12/17 02:41:04;;;;;;;;;;;;;;;3.96;64.59;101359.00;4509352;31;34460;-84
2023/12/17 02:43:31;;;;;;;;;;;;;;;4.05;64.65;101349.44;4514282;31;34574;-94
2023/12/17 02:45:58;;;;;;;;;;;;;;;4.01;64.73;101351.63;4504644;31;34061;-85
2023/12/17 02:48:26;;;;;;;;;;;;;;;3.85;65.20;101342.78;4515381;31;34047;-85
2023/12/17 02:50:53;;;;;;;;;;;;;;;3.38;68.12;101341.81;4509638;31;34438;-85
2023/12/17 02:53:20;;;;;;;;;;;;;;;3.30;68.02;101341.22;4499341;31;33432;-85
2023/12/17 02:55:48;;;;;;;;;;;;;;;3.69;66.94;101327.06;4499340;31;35511;-86
2023/12/17 02:58:15;;;;;;;;;;;;;;;3.79;66.59;101328.63;4499164;31;34380;-85
2023/12/17 03:00:42;;;;;;;;;;;;;;;3.84;66.35;101323.06;4499142;31;34875;-86
2023/12/17 03:03:10;;;;;;;;;;;;;;;3.88;66.31;101322.50;4499371;31;33254;-85
2023/12/17 03:05:37;;;;;;;;;;;;;;;3.86;66.02;101313.81;4505685;31;34184;-91
2023/12/17 03:08:05;;;;;;;;;;;;;;;3.54;67.27;101318.22;4508131;31;34928;-85
2023/12/17 03:10:32;;;;;;;;;;;;;;;3.74;66.68;101300.06;4514338;31;34137;-90
2023/12/17 03:12:59;;;;;;;;;;;;;;;3.54;67.22;101310.53;4501288;31;34314;-85
2023/12/17 03:15:26;;;;;;;;;;;;;;;3.65;67.26;101319.91;4514211;31;35062;-86
2023/12/17 03:17:54;;;;;;;;;;;;;;;3.78;66.86;101306.31;4515592;31;33879;-85
2023/12/17 03:20:21;;;;;;;;;;;;;;;3.71;67.18;101315.22;4513807;31;34772;-87
2023/12/17 03:22:48;;;;;;;;;;;;;;;3.70;67.47;101317.69;4501797;31;32724;-92
2023/12/17 03:25:16;;;;;;;;;;;;;;;3.81;67.40;101327.06;4514323;31;34998;-85
2023/12/17 03:27:46;;;;;;;;;;;;;;;3.75;67.64;101321.47;4507679;31;34314;-94
2023/12/17 03:30:13;;;;;;;;;;;;;;;3.98;67.11;101325.72;4499434;31;34372;-86
2023/12/17 03:32:41;;;;;;;;;;;;;;;4.03;67.18;101317.59;4500174;31;33310;-84
2023/12/17 03:35:08;;;;;;;;;;;;;;;4.04;67.16;101323.62;4500843;31;35531;-85
2023/12/17 03:37:36;;;;;;;;;;;;;;;4.10;66.66;101326.66;4499320;31;34347;-86
2023/12/17 03:40:04;;;;;;;;;;;;;;;4.17;66.29;101323.75;4498743;31;33776;-86
2023/12/17 03:42:31;;;;;;;;;;;;;;;4.00;66.54;101313.94;4498776;31;33668;-85
2023/12/17 03:44:58;;;;;;;;;;;;;;;3.97;67.24;101311.13;4501974;31;35064;-86
2023/12/17 03:47:27;;;;;;;;;;;;;;;4.07;66.66;101308.47;4498252;31;34359;-91
2023/12/17 03:49:54;;;;;;;;;;;;;;;4.04;66.62;101321.06;4505353;31;34168;-85
2023/12/17 03:52:22;;;;;;;;;;;;;;;4.00;66.89;101311.34;4498861;31;33386;-86
2023/12/17 03:54:49;;;;;;;;;;;;;;;3.98;66.75;101310.34;4503571;31;34558;-86
2023/12/17 03:57:16;;;;;;;;;;;;;;;3.81;66.96;101301.41;4498132;31;33515;-87
2023/12/17 03:59:44;;;;;;;;;;;;;;;3.73;67.23;101300.84;4504313;31;34152;-86
2023/12/17 04:02:11;;;;;;;;;;;;;;;3.88;66.92;101304.53;4500829;31;34185;-85
2023/12/17 04:04:39;;;;;;;;;;;;;;;3.79;66.85;101297.81;4509444;31;33989;-90
2023/12/17 04:07:06;;;;;;;;;;;;;;;3.62;67.40;101299.16;4514066;31;34260;-85
2023/12/17 04:09:33;;;;;;;;;;;;;;;3.66;67.32;101302.06;4504267;31;34676;-85
2023/12/17 04:12:01;;;;;;;;;;;;;;;3.74;67.23;101302.63;4514248;31;34040;-86
2023/12/17 04:14:28;;;;;;;;;;;;;;;3.65;67.50;101300.28;4515959;31;34013;-85
2023/12/17 04:16:55;;;;;;;;;;;;;;;3.75;67.21;101296.75;4515051;31;34243;-85
2023/12/17 04:19:23;;;;;;;;;;;;;;;3.69;67.75;101295.38;4515566;31;34336;-86
2023/12/17 04:21:50;;;;;;;;;;;;;;;3.45;68.60;101286.72;4506883;31;33534;-85
2023/12/17 04:24:17;;;;;;;;;;;;;;;3.26;68.92;101281.88;4516039;31;33903;-85
2023/12/17 04:26:45;;;;;;;;;;;;;;;3.48;68.39;101279.28;4514853;31;34325;-88
2023/12/17 04:29:13;;;;;;;;;;;;;;;3.30;69.10;101272.00;4515038;31;35155;-85
2023/12/17 04:31:40;;;;;;;;;;;;;;;3.49;68.52;101270.81;4513515;31;33092;-85
2023/12/17 04:34:08;;;;;;;;;;;;;;;3.31;69.97;101285.72;4500135;31;33652;-90
2023/12/17 04:36:36;;;;;;;;;;;;;;;3.46;69.93;101285.97;4509201;31;34097;-85
2023/12/17 04:39:03;;;;;;;;;;;;;;;3.44;69.97;101277.25;4500356;31;35135;-86
2023/12/17 04:41:30;;;;;;;;;;;;;;;3.55;70.06;101296.91;4505574;31;34183;-85
2023/12/17 04:43:58;;;;;;;;;;;;;;;3.70;69.96;101287.78;4504915;31;34158;-94
2023/12/17 04:46:25;;;;;;;;;;;;;;;3.93;69.03;101293.72;4506307;31;34044;-92
2023/12/17 04:48:53;;;;;;;;;;;;;;;3.80;68.96;101287.69;4500437;31;34444;-85
2023/12/17 04:51:21;;;;;;;;;;;;;;;3.85;68.40;101288.03;4504244;31;33088;-94
2023/12/17 04:53:49;;;;;;;;;;;;;;;3.89;68.21;101287.47;4506050;31;33625;-86
2023/12/17 04:56:16;;;;;;;;;;;;;;;3.88;68.05;101291.72;4490336;31;34713;-86
2023/12/17 04:58:43;;;;;;;;;;;;;;;3.63;68.27;101288.09;4485555;31;34714;-85
2023/12/17 05:01:11;;;;;;;;;;;;;;;3.49;68.43;101291.34;4499547;31;33651;-85
2023/12/17 05:03:38;;;;;;;;;;;;;;;3.79;67.41;101292.69;4480502;31;33351;-85
2023/12/17 05:06:06;;;;;;;;;;;;;;;3.66;67.83;101302.06;4499411;31;35143;-85
2023/12/17 05:08:33;;;;;;;;;;;;;;;3.77;67.31;101304.53;4507297;31;34482;-85
2023/12/17 05:11:01;;;;;;;;;;;;;;;3.76;67.23;101303.66;4504807;31;33303;-91
2023/12/17 05:13:28;;;;;;;;;;;;;;;3.90;66.42;101308.13;4499736;31;33877;-87
2023/12/17 05:15:55;;;;;;;;;;;;;;;3.92;66.05;101305.66;4499602;31;35133;-85
2023/12/17 05:18:23;;;;;;;;;;;;;;;3.61;66.42;101299.94;4500610;31;34913;-86
2023/12/17 05:20:50;;;;;;;;;;;;;;;3.16;67.93;101306.84;4499989;31;33168;-91
2023/12/17 05:23:17;;;;;;;;;;;;;;;3.40;67.13;101301.78;4499994;31;33746;-91
2023/12/17 05:25:45;;;;;;;;;;;;;;;3.37;67.08;101302.47;4500010;31;35205;-87
2023/12/17 05:28:12;;;;;;;;;;;;;;;3.41;67.14;101299.34;4501349;31;33991;-87
2023/12/17 05:30:39;;;;;;;;;;;;;;;3.44;67.23;101297.78;4499697;31;33544;-85
2023/12/17 05:33:10;;;;;;;;;;;;;;;3.51;66.85;101289.75;4501687;31;33907;-86
2023/12/17 05:35:42;;;;;;;;;;;;;;;3.62;66.55;101307.75;4515520;31;35212;-86
2023/12/17 05:38:09;;;;;;;;;;;;;;;3.54;66.30;101300.25;4512367;31;34571;-85
2023/12/17 05:40:36;;;;;;;;;;;;;;;3.33;66.70;101305.56;4515993;31;33978;-90
2023/12/17 05:43:05;;;;;;;;;;;;;;;3.33;66.69;101309.78;4509222;31;33849;-89
2023/12/17 05:45:33;;;;;;;;;;;;;;;3.27;66.83;101314.47;4497689;31;34113;-86
2023/12/17 05:48:00;;;;;;;;;;;;;;;3.48;66.27;101304.91;4503797;31;34153;-86
2023/12/17 05:50:28;;;;;;;;;;;;;;;3.28;67.59;101314.56;4515500;31;33062;-87
2023/12/17 05:52:55;;;;;;;;;;;;;;;3.49;66.97;101316.97;4483804;32;35429;-87
2023/12/17 05:55:23;;;;;;;;;;;;;;;3.13;68.38;101315.97;4482687;32;33809;-90
2023/12/17 05:57:51;;;;;;;;;;;;;;;3.39;67.25;101325.63;4482897;32;35323;-86
2023/12/17 06:00:18;;;;;;;;;;;;;;;3.39;66.98;101315.37;4484330;32;33111;-86
2023/12/17 06:02:45;;;;;;;;;;;;;;;3.46;67.08;101319.31;4482954;32;34134;-84
2023/12/17 06:05:13;;;;;;;;;;;;;;;3.12;67.75;101319.31;4477165;32;33966;-90
2023/12/17 06:07:40;;;;;;;;;;;;;;;3.32;67.19;101318.25;4468269;32;34061;-86
2023/12/17 06:10:08;;;;;;;;;;;;;;;3.33;67.05;101317.47;4468840;32;33604;-85
2023/12/17 06:12:35;;;;;;;;;;;;;;;3.29;67.08;101311.22;4468045;32;33831;-85
2023/12/17 06:15:02;;;;;;;;;;;;;;;2.82;68.48;101303.34;4468183;32;33714;-90
2023/12/17 06:17:31;;;;;;;;;;;;;;;2.93;69.43;101292.25;4467741;32;34248;-93
2023/12/17 06:19:58;;;;;;;;;;;;;;;3.08;69.27;101286.53;4474022;32;34052;-85
2023/12/17 06:22:28;;;;;;;;;;;;;;;3.15;70.61;101268.28;4483809;32;33234;-95
2023/12/17 06:24:55;;;;;;;;;;;;;;;3.24;70.52;101281.78;4481642;32;34537;-85
2023/12/17 06:27:22;;;;;;;;;;;;;;;2.74;73.49;101293.28;4468144;32;33995;-85
2023/12/17 06:29:52;;;;;;;;;;;;;;;2.90;73.08;101281.78;4473889;32;33223;-84
2023/12/17 06:32:19;;;;;;;;;;;;;;;3.08;72.86;101278.84;4482408;32;34066;-92
2023/12/17 06:34:47;;;;;;;;;;;;;;;3.75;70.23;101275.28;4483983;32;35145;-91
2023/12/17 06:37:14;;;;;;;;;;;;;;;3.27;71.66;101264.09;4467903;32;33100;-91
2023/12/17 06:39:42;;;;;;;;;;;;;;;3.73;69.82;101264.94;4482943;32;32318;-85
2023/12/17 06:42:10;;;;;;;;;;;;;;;3.65;69.67;101266.03;4478428;32;33885;-85
2023/12/17 06:44:37;;;;;;;;;;;;;;;3.42;70.09;101274.59;4478759;32;35135;-87
2023/12/17 06:47:05;;;;;;;;;;;;;;;3.81;68.90;101274.09;4467686;32;34276;-87
2023/12/17 06:49:48;;;;;;;;;;;;;;;3.77;68.74;101278.88;4470082;32;34062;-85
2023/12/17 06:52:15;;;;;;;;;;;;;;;3.58;69.29;101276.63;4502476;31;34930;-86
2023/12/17 06:54:43;;;;;;;;;;;;;;;4.11;67.65;101271.97;4505978;31;33625;-92
2023/12/17 06:57:10;;;;;;;;;;;;;;;3.51;69.60;101279.50;4503967;31;33762;-92
2023/12/17 06:59:37;;;;;;;;;;;;;;;3.81;68.71;101286.03;4507129;31;33346;-92
2023/12/17 07:02:05;;;;;;;;;;;;;;;3.95;67.82;101284.47;4512574;31;33960;-92
2023/12/17 07:04:32;;;;;;;;;;;;;;;3.44;69.79;101279.81;4509261;31;33917;-86
2023/12/17 07:07:00;;;;;;;;;;;;;;;3.45;69.41;101287.66;4510214;31;35077;-88
2023/12/17 07:09:27;;;;;;;;;;;;;;;4.05;68.07;101281.78;4510380;31;33762;-87
2023/12/17 07:11:55;;;;;;;;;;;;;;;4.11;67.50;101271.97;4512911;31;34177;-87
2023/12/17 07:14:22;;;;;;;;;;;;;;;3.97;67.80;101272.62;4497909;31;34081;-91
2023/12/17 07:16:49;;;;;;;;;;;;;;;4.25;66.71;101268.72;4478232;31;33596;-85
2023/12/17 07:19:16;;;;;;;;;;;;;;;4.10;67.42;101275.31;4494366;31;33441;-85
2023/12/17 07:21:45;;;;;;;;;;;;;;;4.47;65.76;101272.78;4493513;31;33759;-84
2023/12/17 07:24:13;;;;;;;;;;;;;;;3.96;67.87;101268.28;4493233;31;34841;-85
2023/12/17 07:26:40;;;;;;;;;;;;;;;3.82;68.00;101263.03;4498804;31;32769;-91
2023/12/17 07:29:07;;;;;;;;;;;;;;;4.13;67.20;101261.03;4498664;31;33871;-87
2023/12/17 07:31:35;;;;;;;;;;;;;;;4.19;67.16;101260.56;4504249;31;34179;-92
2023/12/17 07:34:02;;;;;;;;;;;;;;;3.94;67.42;101264.69;4503125;31;34790;-92
2023/12/17 07:36:29;;;;;;;;;;;;;;;4.26;66.97;101273.06;4505760;31;34191;-87
2023/12/17 07:38:57;;;;;;;;;;;;;;;3.95;67.46;101279.34;4498802;31;33036;-87
2023/12/17 07:41:24;;;;;;;;;;;;;;;3.86;67.93;101271.84;4503471;31;34137;-89
2023/12/17 07:43:51;;;;;;;;;;;;;;;4.59;66.02;101263.41;4512854;31;35110;-89
2023/12/17 07:46:18;;;;;;;;;;;;;;;4.16;66.54;101270.59;4509341;31;33976;-86
2023/12/17 07:48:46;;;;;;;;;;;;;;;4.39;66.57;101273.16;4493457;31;31990;-87
2023/12/17 07:51:13;;;;;;;;;;;;;;;4.47;65.65;101272.78;4499531;31;94737;-85
2023/12/17 07:53:40;;;;;;;;;;;;;;;4.55;66.10;101276.81;4500898;31;33675;-86
2023/12/17 07:56:08;;;;;;;;;;;;;;;4.70;65.54;101270.19;4514071;31;34486;-87
2023/12/17 07:58:35;;;;;;;;;;;;;;;4.57;65.91;101275.22;4514349;31;34098;-87
2023/12/17 08:01:03;;;;;;;;;;;;;;;4.83;65.04;101271.91;4500051;31;33418;-90
2023/12/17 08:03:31;;;;;;;;;;;;;;;4.92;65.06;101263.94;4508919;31;34377;-87
2023/12/17 08:05:59;;;;;;;;;;;;;;;5.39;63.56;101261.16;4498088;31;33970;-87
2023/12/17 08:08:26;;;;;;;;;;;;;;;5.20;63.88;101267.63;4483972;31;33360;-88
2023/12/17 08:10:54;;;;;;;;;;;;;;;5.09;64.22;101273.72;4498019;31;34167;-89
2023/12/17 08:13:21;;;;;;;;;;;;;;;4.95;64.50;101282.16;4503327;31;34395;-88
2023/12/17 08:15:48;;;;;;;;;;;;;;;5.24;63.78;101295.31;4502984;31;34956;-87
2023/12/17 08:18:16;;;;;;;;;;;;;;;5.57;62.46;101290.69;4497531;31;33464;-87
2023/12/17 08:20:43;;;;;;;;;;;;;;;5.96;61.07;101292.44;4493159;31;33542;-85
2023/12/17 08:23:10;;;;;;;;;;;;;;;5.85;61.17;101299.41;4492422;31;35030;-86
2023/12/17 08:25:38;;;;;;;;;;;;;;;5.75;61.69;101293.56;4493646;31;32632;-85
2023/12/17 08:28:06;;;;;;;;;;;;;;;5.34;62.72;101289.09;4501985;31;33649;-86
2023/12/17 08:30:33;;;;;;;;;;;;;;;5.31;62.85;101292.38;4501178;31;34659;-91
2023/12/17 08:33:03;;;;;;;;;;;;;;;5.29;63.10;101299.09;4478873;31;34729;-88
2023/12/17 08:35:31;;;;;;;;;;;;;;;5.11;63.76;101301.31;4492742;31;34275;-91
2023/12/17 08:38:03;;;;;;;;;;;;;;;5.46;62.98;101300.25;4467875;31;33447;-86
2023/12/17 08:40:34;;;;;;;;;;;;;;;5.68;61.88;101299.97;4477812;31;34082;-87
2023/12/17 08:43:01;;;;;;;;;;;;;;;5.64;62.30;101308.28;4479431;31;34263;-86
2023/12/17 08:45:29;;;;;;;;;;;;;;;5.44;62.75;101313.78;4479591;31;34486;-88
2023/12/17 08:47:56;;;;;;;;;;;;;;;5.43;62.94;101312.91;4484095;31;33142;-87
2023/12/17 08:50:24;;;;;;;;;;;;;;;5.84;61.65;101317.34;4465070;31;33331;-87
2023/12/17 08:52:51;;;;;;;;;;;;;;;5.90;61.12;101322.88;4471711;31;33859;-88
2023/12/17 08:55:22;;;;;;;;;;;;;;;6.12;60.66;101314.03;4481493;31;34556;-88
2023/12/17 08:57:49;;;;;;;;;;;;;;;6.03;60.50;101309.19;4482198;31;33398;-87
2023/12/17 09:00:17;;;;;;;;;;;;;;;6.21;60.11;101325.84;4459035;31;31869;-88
2023/12/17 09:02:44;;;;;;;;;;;;;;;5.59;61.40;101327.69;4467378;31;34014;-89
2023/12/17 09:05:12;;;;;;;;;;;;;;;5.47;62.85;101327.75;4465774;31;36232;-86
2023/12/17 09:07:40;;;;;;;;;;;;;;;5.83;60.99;101326.75;4501845;31;33716;-89
2023/12/17 09:10:08;;;;;;;;;;;;;;;6.02;60.38;101316.03;4492121;31;32826;-85
2023/12/17 09:12:35;;;;;;;;;;;;;;;6.14;60.20;101318.50;4502990;31;34162;-84
2023/12/17 09:15:02;;;;;;;;;;;;;;;5.91;60.46;101321.19;4486343;31;34562;-86
2023/12/17 09:17:30;;;;;;;;;;;;;;;6.37;59.30;101317.41;4502498;31;33209;-87
2023/12/17 09:19:57;;;;;;;;;;;;;;;6.61;58.60;101317.16;4500753;31;33829;-86
2023/12/17 09:22:24;;;;;;;;;;;;;;;6.46;58.87;101306.78;4490901;31;33786;-85
2023/12/17 09:24:52;;;;;;;;;;;;;;;6.60;58.93;101310.25;4510236;31;35262;-87
2023/12/17 09:27:19;;;;;;;;;;;;;;;6.82;58.38;101313.38;4474224;31;32950;-85
2023/12/17 09:29:47;;;;;;;;;;;;;;;6.55;58.96;101317.66;4506945;31;34780;-85
2023/12/17 09:32:14;;;;;;;;;;;;;;;6.37;59.47;101311.37;4504995;31;34254;-89
2023/12/17 09:34:41;;;;;;;;;;;;;;;6.10;59.47;101316.53;4507644;31;34536;-89
2023/12/17 09:37:08;;;;;;;;;;;;;;;6.15;59.80;101304.81;4513050;31;33344;-87
2023/12/17 09:39:36;;;;;;;;;;;;;;;6.65;58.60;101294.25;4513599;31;34190;-88
2023/12/17 09:42:03;;;;;;;;;;;;;;;6.54;58.67;101301.31;4508846;31;33833;-86
2023/12/17 09:44:30;;;;;;;;;;;;;;;6.86;58.11;101288.63;4506189;31;34474;-86
2023/12/17 09:46:58;;;;;;;;;;;;;;;6.82;58.02;101278.16;4491011;31;33587;-87
2023/12/17 09:49:25;;;;;;;;;;;;;;;6.04;59.77;101287.78;4513360;31;33808;-86
2023/12/17 09:51:56;;;;;;;;;;;;;;;6.51;59.05;101275.34;4510032;31;35106;-85
2023/12/17 09:54:24;;;;;;;;;;;;;;;6.72;58.66;101275.78;4489009;31;35158;-87
2023/12/17 09:56:52;;;;;;;;;;;;;;;6.46;59.68;101270.72;4506170;31;33443;-85
2023/12/17 09:59:19;;;;;;;;;;;;;;;6.77;58.28;101273.50;4497762;31;34159;-86
2023/12/17 10:01:46;;;;;;;;;;;;;;;6.42;59.29;101279.94;4513465;31;35103;-87
2023/12/17 10:04:14;;;;;;;;;;;;;;;6.88;57.90;101272.47;4513184;31;33303;-86
2023/12/17 10:06:41;;;;;;;;;;;;;;;6.83;58.09;101274.78;4504621;31;34233;-87
2023/12/17 10:09:08;;;;;;;;;;;;;;;6.82;58.06;101267.84;4505858;31;33953;-85
2023/12/17 10:11:37;;;;;;;;;;;;;;;6.39;58.82;101272.00;4514750;31;34181;-86
2023/12/17 10:14:05;;;;;;;;;;;;;;;6.55;58.39;101267.03;4514023;31;33855;-86
2023/12/17 10:16:33;;;;;;;;;;;;;;;6.54;58.64;101264.34;4494246;31;33230;-87
2023/12/17 10:19:00;;;;;;;;;;;;;;;6.95;57.86;101263.44;4508673;31;35144;-88
2023/12/17 10:21:27;;;;;;;;;;;;;;;6.98;57.83;101254.19;4514580;31;34312;-86
2023/12/17 10:23:55;;;;;;;;;;;;;;;7.10;57.43;101258.31;4513839;31;34388;-88
2023/12/17 10:26:22;;;;;;;;;;;;;;;7.36;56.61;101252.12;4513405;31;32867;-88
2023/12/17 10:28:52;;;;;;;;;;;;;;;6.96;57.26;101245.47;4487231;31;34219;-89
2023/12/17 10:31:21;;;;;;;;;;;;;;;7.10;56.86;101248.88;4503069;31;34086;-87
2023/12/17 10:33:56;;;;;;;;;;;;;;;6.85;57.17;101245.59;4491836;31;34870;-92
2023/12/17 10:36:24;;;;;;;;;;;;;;;7.21;55.83;101234.03;4495235;31;34251;-87
2023/12/17 10:38:52;;;;;;;;;;;;;;;7.19;56.29;101233.94;4506904;31;33821;-88
2023/12/17 10:41:19;;;;;;;;;;;;;;;7.37;55.17;101243.56;4506864;31;33924;-88
2023/12/17 10:43:46;;;;;;;;;;;;;;;7.09;55.80;101235.91;4489733;31;35094;-89
2023/12/17 10:46:14;;;;;;;;;;;;;;;7.32;54.94;101243.31;4484969;31;33160;-92
2023/12/17 10:48:41;;;;;;;;;;;;;;;6.88;55.81;101225.19;4489606;31;33658;-86
2023/12/17 10:51:15;;;;;;;;;;;;;;;7.46;54.52;101224.38;4493272;31;34221;-92
2023/12/17 10:53:42;;;;;;;;;;;;;;;7.03;55.08;101211.50;4495587;31;34798;-84
2023/12/17 10:56:09;;;;;;;;;;;;;;;7.04;55.09;101218.44;4503887;31;33131;-86
2023/12/17 10:58:37;;;;;;;;;;;;;;;7.26;54.89;101204.25;4502208;31;34637;-88
2023/12/17 11:01:04;;;;;;;;;;;;;;;7.31;54.86;101216.63;4507185;31;35117;-85
2023/12/17 11:03:32;;;;;;;;;;;;;;;7.72;54.13;101212.03;4484990;31;34496;-87
2023/12/17 11:06:01;;;;;;;;;;;;;;;7.69;53.11;101217.94;4485755;31;32595;-86
2023/12/17 11:08:29;;;;;;;;;;;;;;;7.62;53.85;101223.56;4492929;31;34566;-96
2023/12/17 11:10:58;;;;;;;;;;;;;;;8.00;53.18;101224.84;4506557;31;34188;-94
2023/12/17 11:13:25;;;;;;;;;;;;;;;7.62;54.85;101220.09;4500791;31;34098;-87
2023/12/17 11:15:54;;;;;;;;;;;;;;;7.38;55.96;101211.81;4501086;31;34048;-89
2023/12/17 11:18:23;;;;;;;;;;;;;;;7.47;55.51;101209.78;4495281;31;34203;-88
2023/12/17 11:20:52;;;;;;;;;;;;;;;7.73;54.90;101203.53;4513243;31;34500;-86
2023/12/17 11:23:20;;;;;;;;;;;;;;;7.67;55.90;101203.16;4499075;31;33758;-88
2023/12/17 11:25:47;;;;;;;;;;;;;;;7.75;55.04;101201.91;4515288;31;34444;-90
2023/12/17 11:28:27;;;;;;;;;;;;;;;8.24;53.55;101200.34;4499791;31;33994;-86
2023/12/17 11:30:54;;;;;;;;;;;;;;;7.19;56.35;101208.12;4488496;31;34572;-89
2023/12/17 11:33:22;;;;;;;;;;;;;;;7.06;56.67;101203.06;4491935;31;34113;-86
2023/12/17 11:35:49;;;;;;;;;;;;;;;7.10;56.16;101201.56;4490927;31;33506;-87
2023/12/17 11:38:17;;;;;;;;;;;;;;;7.63;54.98;101202.09;4487000;31;33847;-90
2023/12/17 11:40:45;;;;;;;;;;;;;;;7.45;55.93;101201.03;4485344;31;33268;-93
2023/12/17 11:43:13;;;;;;;;;;;;;;;7.63;55.00;101196.94;4499725;31;34296;-86
2023/12/17 11:45:45;;;;;;;;;;;;;;;7.84;55.27;101201.53;4497297;31;33719;-84
2023/12/17 11:48:14;;;;;;;;;;;;;;;8.08;54.55;101196.84;4487308;31;33315;-86
2023/12/17 11:50:56;;;;;;;;;;;;;;;7.62;55.09;101199.44;4470528;31;33013;-89
2023/12/17 11:53:26;;;;;;;;;;;;;;;7.67;55.11;101198.88;4494562;31;34303;-89
2023/12/17 11:55:59;;;;;;;;;;;;;;;7.51;55.24;101201.41;4515123;31;33241;-94
2023/12/17 11:58:26;;;;;;;;;;;;;;;7.47;55.71;101197.75;4501065;31;34064;-93
2023/12/17 12:01:08;;;;;;;;;;;;;;;8.02;54.21;101187.94;4512510;31;34738;-87
2023/12/17 12:03:36;;;;;;;;;;;;;;;8.32;53.47;101192.13;4500462;31;34459;-92
2023/12/17 12:06:07;;;;;;;;;;;;;;;7.60;55.13;101189.00;4510295;31;33211;-93
2023/12/17 12:08:36;;;;;;;;;;;;;;;7.95;54.15;101185.81;4495135;31;34243;-89
2023/12/17 12:11:03;;;;;;;;;;;;;;;7.40;55.35;101185.28;4485342;31;34347;-95
2023/12/17 12:13:31;;;;;;;;;;;;;;;7.55;55.20;101173.28;4514938;31;34500;-86
2023/12/17 12:16:04;;;;;;;;;;;;;;;7.36;55.68;101170.44;4487463;31;32294;-86
2023/12/17 12:18:31;;;;;;;;;;;;;;;7.92;54.45;101164.12;4493294;31;34029;-91
2023/12/17 12:20:59;;;;;;;;;;;;;;;8.02;54.67;101171.56;4488978;31;35311;-92
2023/12/17 12:23:26;;;;;;;;;;;;;;;8.38;53.55;101161.50;4501280;31;35148;-91
2023/12/17 12:25:58;;;;;;;;;;;;;;;8.54;53.10;101169.25;4509129;31;34191;-92
2023/12/17 12:28:25;;;;;;;;;;;;;;;8.76;52.64;101166.97;4514229;31;33678;-87
2023/12/17 12:30:52;;;;;;;;;;;;;;;8.38;53.55;101166.66;4482676;31;35179;-88
2023/12/17 12:33:20;;;;;;;;;;;;;;;8.51;53.38;101164.78;4466630;31;33509;-88
2023/12/17 12:35:48;;;;;;;;;;;;;;;8.28;53.99;101176.44;4491040;31;31953;-88
2023/12/17 12:38:22;;;;;;;;;;;;;;;8.21;54.39;101173.44;4474125;31;33630;-87
2023/12/17 12:40:50;;;;;;;;;;;;;;;8.04;54.29;101168.25;4472420;31;34423;-86
2023/12/17 12:43:18;;;;;;;;;;;;;;;8.22;53.87;101170.06;4485126;31;34244;-86
2023/12/17 12:45:45;;;;;;;;;;;;;;;8.40;53.39;101173.66;4511876;31;33310;-85
2023/12/17 12:48:19;;;;;;;;;;;;;;;8.20;54.18;101185.47;4492025;31;34182;-88
2023/12/17 12:50:47;;;;;;;;;;;;;;;8.59;53.52;101187.56;4506337;31;35184;-88